MUCU/SCU METAR and TAF weather

Enter ICAO airport designator
Station Type Date Time Source
MUCU METAR 2021/03/03 19:50 UTC NOAA

MUCU 031950Z 20009KT 9000 FEW020 28/22 Q1015


Station Type Date Time Source
MUCU Decoded METAR 2021/03/03 19:50 UTC NOAA

Santiago De Cuba, Oriente, Cuba (MUCU) 19-58N 075-51W 55M
Mar 03, 2021 - 02:50 PM EST / 2021.03.03 1950 UTC
Wind: from the SSW (200 degrees) at 10 MPH (9 KT):0
Visibility: 5 mile(s):0
Sky conditions: mostly clear
Temperature: 82 F (28 C)
Dew Point: 71 F (22 C)
Relative Humidity: 69%
Pressure (altimeter): 29.97 in. Hg (1015 hPa)
ob: MUCU 031950Z 20009KT 9000 FEW020 28/22 Q1015
cycle: 20

Station Type Date Time Source
MUCU TAF 2021/03/03 18:03 UTC NOAA

TAF MUCU 031700Z 0318/0418 18008KT 9000 SCT020
BECMG 0400/0402 VRB03KT
BECMG 0415/0417 18009KT

Example: see airport list